sensor_id;sensor_type;location;lat;lon;timestamp;P1;durP1;ratioP1;P2;durP2;ratioP2
65463;SDS011;52063;45.110;9.870;2023-05-29T00:00:32;6.27;;;4.77;;
65463;SDS011;52063;45.110;9.870;2023-05-29T00:02:58;5.20;;;4.70;;
65463;SDS011;52063;45.110;9.870;2023-05-29T00:05:23;4.90;;;4.47;;
65463;SDS011;52063;45.110;9.870;2023-05-29T00:07:49;5.37;;;4.30;;
65463;SDS011;52063;45.110;9.870;2023-05-29T00:10:15;4.80;;;4.35;;
65463;SDS011;52063;45.110;9.870;2023-05-29T00:12:41;4.57;;;4.18;;
65463;SDS011;52063;45.110;9.870;2023-05-29T00:15:06;4.07;;;3.77;;
65463;SDS011;52063;45.110;9.870;2023-05-29T00:17:34;4.95;;;4.03;;
65463;SDS011;52063;45.110;9.870;2023-05-29T00:20:00;5.00;;;4.40;;
65463;SDS011;52063;45.110;9.870;2023-05-29T00:22:32;4.80;;;4.40;;
65463;SDS011;52063;45.110;9.870;2023-05-29T00:24:57;4.60;;;4.20;;
65463;SDS011;52063;45.110;9.870;2023-05-29T00:27:23;5.67;;;4.60;;
65463;SDS011;52063;45.110;9.870;2023-05-29T00:29:48;5.27;;;4.73;;
65463;SDS011;52063;45.110;9.870;2023-05-29T00:32:14;5.73;;;4.67;;
65463;SDS011;52063;45.110;9.870;2023-05-29T00:34:39;5.20;;;4.37;;
65463;SDS011;52063;45.110;9.870;2023-05-29T00:37:05;4.53;;;4.10;;
65463;SDS011;52063;45.110;9.870;2023-05-29T00:39:31;5.15;;;4.68;;
65463;SDS011;52063;45.110;9.870;2023-05-29T00:41:57;4.97;;;4.57;;
65463;SDS011;52063;45.110;9.870;2023-05-29T00:44:22;5.00;;;4.60;;
65463;SDS011;52063;45.110;9.870;2023-05-29T00:46:48;5.25;;;4.80;;
65463;SDS011;52063;45.110;9.870;2023-05-29T00:49:15;5.10;;;4.60;;
65463;SDS011;52063;45.110;9.870;2023-05-29T00:51:41;5.40;;;4.05;;
65463;SDS011;52063;45.110;9.870;2023-05-29T00:54:07;5.82;;;4.70;;
65463;SDS011;52063;45.110;9.870;2023-05-29T00:56:34;4.78;;;4.28;;
65463;SDS011;52063;45.110;9.870;2023-05-29T00:59:00;4.55;;;4.03;;
65463;SDS011;52063;45.110;9.870;2023-05-29T01:01:26;5.30;;;4.30;;
65463;SDS011;52063;45.110;9.870;2023-05-29T01:03:53;4.63;;;4.22;;
65463;SDS011;52063;45.110;9.870;2023-05-29T01:06:22;5.60;;;4.40;;
65463;SDS011;52063;45.110;9.870;2023-05-29T01:08:48;4.50;;;4.10;;
65463;SDS011;52063;45.110;9.870;2023-05-29T01:13:46;4.63;;;4.15;;
65463;SDS011;52063;45.110;9.870;2023-05-29T01:16:12;4.45;;;4.05;;
65463;SDS011;52063;45.110;9.870;2023-05-29T01:21:31;6.10;;;4.68;;
65463;SDS011;52063;45.110;9.870;2023-05-29T01:24:37;4.03;;;3.70;;
65463;SDS011;52063;45.110;9.870;2023-05-29T01:27:06;4.57;;;4.18;;
65463;SDS011;52063;45.110;9.870;2023-05-29T01:29:35;5.05;;;4.53;;
65463;SDS011;52063;45.110;9.870;2023-05-29T01:32:03;4.93;;;4.47;;
65463;SDS011;52063;45.110;9.870;2023-05-29T01:34:30;6.38;;;4.50;;
65463;SDS011;52063;45.110;9.870;2023-05-29T01:36:56;4.72;;;4.30;;
65463;SDS011;52063;45.110;9.870;2023-05-29T01:39:21;4.53;;;4.17;;
65463;SDS011;52063;45.110;9.870;2023-05-29T01:41:48;5.15;;;4.65;;
65463;SDS011;52063;45.110;9.870;2023-05-29T01:44:13;5.47;;;4.97;;
65463;SDS011;52063;45.110;9.870;2023-05-29T01:46:41;5.00;;;4.50;;
65463;SDS011;52063;45.110;9.870;2023-05-29T01:49:07;5.40;;;4.90;;
65463;SDS011;52063;45.110;9.870;2023-05-29T01:51:33;5.60;;;5.10;;
65463;SDS011;52063;45.110;9.870;2023-05-29T01:54:00;4.90;;;4.50;;
65463;SDS011;52063;45.110;9.870;2023-05-29T01:56:26;6.20;;;4.82;;
65463;SDS011;52063;45.110;9.870;2023-05-29T01:58:53;4.70;;;3.90;;
65463;SDS011;52063;45.110;9.870;2023-05-29T02:01:23;5.00;;;4.60;;
65463;SDS011;52063;45.110;9.870;2023-05-29T02:03:49;4.60;;;4.20;;
65463;SDS011;52063;45.110;9.870;2023-05-29T02:06:16;5.38;;;4.85;;
65463;SDS011;52063;45.110;9.870;2023-05-29T02:08:42;4.83;;;4.50;;
65463;SDS011;52063;45.110;9.870;2023-05-29T02:11:07;4.63;;;4.30;;
65463;SDS011;52063;45.110;9.870;2023-05-29T02:13:33;6.13;;;4.30;;
65463;SDS011;52063;45.110;9.870;2023-05-29T02:15:59;6.25;;;4.82;;
65463;SDS011;52063;45.110;9.870;2023-05-29T02:18:24;5.10;;;4.60;;
65463;SDS011;52063;45.110;9.870;2023-05-29T02:20:50;5.23;;;4.73;;
65463;SDS011;52063;45.110;9.870;2023-05-29T02:23:20;4.65;;;4.25;;
65463;SDS011;52063;45.110;9.870;2023-05-29T02:25:45;6.07;;;4.53;;
65463;SDS011;52063;45.110;9.870;2023-05-29T02:28:11;5.60;;;5.10;;
65463;SDS011;52063;45.110;9.870;2023-05-29T02:30:38;5.22;;;4.65;;
65463;SDS011;52063;45.110;9.870;2023-05-29T02:33:04;5.47;;;4.90;;
65463;SDS011;52063;45.110;9.870;2023-05-29T02:35:33;6.25;;;4.60;;
65463;SDS011;52063;45.110;9.870;2023-05-29T02:37:58;5.40;;;4.73;;
65463;SDS011;52063;45.110;9.870;2023-05-29T02:40:23;4.95;;;4.47;;
65463;SDS011;52063;45.110;9.870;2023-05-29T02:42:49;4.63;;;4.23;;
65463;SDS011;52063;45.110;9.870;2023-05-29T02:45:15;5.57;;;5.07;;
65463;SDS011;52063;45.110;9.870;2023-05-29T02:47:41;5.30;;;4.80;;
65463;SDS011;52063;45.110;9.870;2023-05-29T02:50:06;5.95;;;5.35;;
65463;SDS011;52063;45.110;9.870;2023-05-29T02:52:33;5.10;;;4.60;;
65463;SDS011;52063;45.110;9.870;2023-05-29T02:54:59;5.15;;;4.72;;
65463;SDS011;52063;45.110;9.870;2023-05-29T02:57:25;5.10;;;4.70;;
65463;SDS011;52063;45.110;9.870;2023-05-29T02:59:50;6.25;;;5.35;;
65463;SDS011;52063;45.110;9.870;2023-05-29T03:02:19;5.82;;;4.78;;
65463;SDS011;52063;45.110;9.870;2023-05-29T03:04:45;6.50;;;5.30;;
65463;SDS011;52063;45.110;9.870;2023-05-29T03:07:11;5.63;;;4.50;;
65463;SDS011;52063;45.110;9.870;2023-05-29T03:09:37;5.50;;;5.00;;
65463;SDS011;52063;45.110;9.870;2023-05-29T03:12:03;8.15;;;5.68;;
65463;SDS011;52063;45.110;9.870;2023-05-29T03:14:29;6.75;;;5.55;;
65463;SDS011;52063;45.110;9.870;2023-05-29T03:16:56;7.47;;;5.10;;
65463;SDS011;52063;45.110;9.870;2023-05-29T03:19:22;5.53;;;5.03;;
65463;SDS011;52063;45.110;9.870;2023-05-29T03:21:48;5.68;;;5.18;;
65463;SDS011;52063;45.110;9.870;2023-05-29T03:24:17;6.93;;;5.32;;
65463;SDS011;52063;45.110;9.870;2023-05-29T03:26:42;5.90;;;5.30;;
65463;SDS011;52063;45.110;9.870;2023-05-29T03:29:08;5.67;;;5.07;;
65463;SDS011;52063;45.110;9.870;2023-05-29T03:31:34;5.82;;;4.90;;
65463;SDS011;52063;45.110;9.870;2023-05-29T03:34:00;8.77;;;5.30;;
65463;SDS011;52063;45.110;9.870;2023-05-29T03:36:33;5.33;;;4.90;;
65463;SDS011;52063;45.110;9.870;2023-05-29T03:39:02;5.47;;;4.97;;
65463;SDS011;52063;45.110;9.870;2023-05-29T03:41:28;6.10;;;5.50;;
65463;SDS011;52063;45.110;9.870;2023-05-29T03:43:54;5.90;;;5.37;;
65463;SDS011;52063;45.110;9.870;2023-05-29T03:46:21;6.60;;;5.72;;
65463;SDS011;52063;45.110;9.870;2023-05-29T03:48:47;6.00;;;5.50;;
65463;SDS011;52063;45.110;9.870;2023-05-29T03:51:12;5.60;;;5.10;;
65463;SDS011;52063;45.110;9.870;2023-05-29T03:53:39;5.85;;;5.35;;
65463;SDS011;52063;45.110;9.870;2023-05-29T03:56:04;6.10;;;5.23;;
65463;SDS011;52063;45.110;9.870;2023-05-29T03:58:31;6.78;;;5.00;;
65463;SDS011;52063;45.110;9.870;2023-05-29T04:00:58;5.50;;;5.00;;
65463;SDS011;52063;45.110;9.870;2023-05-29T04:03:26;5.68;;;5.18;;
65463;SDS011;52063;45.110;9.870;2023-05-29T04:05:51;5.93;;;5.20;;
65463;SDS011;52063;45.110;9.870;2023-05-29T04:08:17;6.25;;;4.95;;
65463;SDS011;52063;45.110;9.870;2023-05-29T04:10:43;5.30;;;4.90;;
65463;SDS011;52063;45.110;9.870;2023-05-29T04:13:09;5.82;;;5.15;;
65463;SDS011;52063;45.110;9.870;2023-05-29T04:15:34;5.13;;;4.72;;
65463;SDS011;52063;45.110;9.870;2023-05-29T04:18:00;6.37;;;5.80;;
65463;SDS011;52063;45.110;9.870;2023-05-29T04:20:25;5.70;;;5.20;;
65463;SDS011;52063;45.110;9.870;2023-05-29T04:22:51;6.15;;;5.65;;
65463;SDS011;52063;45.110;9.870;2023-05-29T04:25:17;6.23;;;5.63;;
65463;SDS011;52063;45.110;9.870;2023-05-29T04:27:44;6.70;;;5.25;;
65463;SDS011;52063;45.110;9.870;2023-05-29T04:30:14;7.13;;;5.63;;
65463;SDS011;52063;45.110;9.870;2023-05-29T04:32:44;5.85;;;5.22;;
65463;SDS011;52063;45.110;9.870;2023-05-29T04:35:11;7.47;;;5.70;;
65463;SDS011;52063;45.110;9.870;2023-05-29T04:37:43;7.40;;;5.32;;
65463;SDS011;52063;45.110;9.870;2023-05-29T04:40:10;6.43;;;5.18;;
65463;SDS011;52063;45.110;9.870;2023-05-29T04:42:36;8.03;;;5.67;;
65463;SDS011;52063;45.110;9.870;2023-05-29T04:45:02;8.20;;;5.50;;
65463;SDS011;52063;45.110;9.870;2023-05-29T04:47:32;6.22;;;5.63;;
65463;SDS011;52063;45.110;9.870;2023-05-29T04:50:01;6.85;;;5.93;;
65463;SDS011;52063;45.110;9.870;2023-05-29T04:52:26;6.32;;;5.70;;
65463;SDS011;52063;45.110;9.870;2023-05-29T04:54:53;7.67;;;6.80;;
65463;SDS011;52063;45.110;9.870;2023-05-29T04:57:19;6.65;;;6.05;;
65463;SDS011;52063;45.110;9.870;2023-05-29T04:59:45;6.13;;;5.53;;
65463;SDS011;52063;45.110;9.870;2023-05-29T05:02:11;7.05;;;5.95;;
65463;SDS011;52063;45.110;9.870;2023-05-29T05:04:37;6.33;;;5.73;;
65463;SDS011;52063;45.110;9.870;2023-05-29T05:07:03;6.33;;;5.73;;
65463;SDS011;52063;45.110;9.870;2023-05-29T05:09:30;7.85;;;5.88;;
65463;SDS011;52063;45.110;9.870;2023-05-29T05:11:57;6.87;;;6.20;;
65463;SDS011;52063;45.110;9.870;2023-05-29T05:14:23;6.47;;;5.60;;
65463;SDS011;52063;45.110;9.870;2023-05-29T05:16:48;6.95;;;6.25;;
65463;SDS011;52063;45.110;9.870;2023-05-29T05:19:14;9.57;;;6.60;;
65463;SDS011;52063;45.110;9.870;2023-05-29T05:21:42;7.47;;;6.03;;
65463;SDS011;52063;45.110;9.870;2023-05-29T05:24:08;8.77;;;6.07;;
65463;SDS011;52063;45.110;9.870;2023-05-29T05:26:37;7.55;;;5.95;;
65463;SDS011;52063;45.110;9.870;2023-05-29T05:29:03;10.60;;;6.30;;
65463;SDS011;52063;45.110;9.870;2023-05-29T05:31:31;7.20;;;6.50;;
65463;SDS011;52063;45.110;9.870;2023-05-29T05:33:57;6.13;;;5.53;;
65463;SDS011;52063;45.110;9.870;2023-05-29T05:36:23;8.20;;;6.87;;
65463;SDS011;52063;45.110;9.870;2023-05-29T05:38:54;7.25;;;6.47;;
65463;SDS011;52063;45.110;9.870;2023-05-29T05:41:21;8.02;;;6.75;;
65463;SDS011;52063;45.110;9.870;2023-05-29T05:43:47;6.63;;;6.03;;
65463;SDS011;52063;45.110;9.870;2023-05-29T05:46:33;8.37;;;7.37;;
65463;SDS011;52063;45.110;9.870;2023-05-29T05:48:58;7.45;;;6.55;;
65463;SDS011;52063;45.110;9.870;2023-05-29T05:51:26;9.57;;;5.80;;
65463;SDS011;52063;45.110;9.870;2023-05-29T05:53:52;8.85;;;7.05;;
65463;SDS011;52063;45.110;9.870;2023-05-29T05:56:18;9.00;;;7.22;;
65463;SDS011;52063;45.110;9.870;2023-05-29T05:58:44;8.40;;;7.40;;
65463;SDS011;52063;45.110;9.870;2023-05-29T06:01:10;8.40;;;6.82;;
65463;SDS011;52063;45.110;9.870;2023-05-29T06:03:36;8.20;;;6.78;;
65463;SDS011;52063;45.110;9.870;2023-05-29T06:06:07;9.25;;;7.07;;
65463;SDS011;52063;45.110;9.870;2023-05-29T06:08:34;7.00;;;6.30;;
65463;SDS011;52063;45.110;9.870;2023-05-29T06:11:00;7.63;;;6.80;;
65463;SDS011;52063;45.110;9.870;2023-05-29T06:13:25;7.75;;;6.85;;
65463;SDS011;52063;45.110;9.870;2023-05-29T06:15:56;7.70;;;6.97;;
65463;SDS011;52063;45.110;9.870;2023-05-29T06:18:22;9.48;;;7.07;;
65463;SDS011;52063;45.110;9.870;2023-05-29T06:20:48;7.72;;;6.93;;
65463;SDS011;52063;45.110;9.870;2023-05-29T06:23:13;8.33;;;6.70;;
65463;SDS011;52063;45.110;9.870;2023-05-29T06:25:39;7.23;;;6.53;;
65463;SDS011;52063;45.110;9.870;2023-05-29T06:28:05;7.55;;;6.75;;
65463;SDS011;52063;45.110;9.870;2023-05-29T06:30:33;7.65;;;6.85;;
65463;SDS011;52063;45.110;9.870;2023-05-29T06:32:59;9.60;;;6.95;;
65463;SDS011;52063;45.110;9.870;2023-05-29T06:35:29;8.13;;;7.33;;
65463;SDS011;52063;45.110;9.870;2023-05-29T06:37:55;7.55;;;6.78;;
65463;SDS011;52063;45.110;9.870;2023-05-29T06:40:20;7.43;;;6.73;;
65463;SDS011;52063;45.110;9.870;2023-05-29T06:42:46;8.30;;;7.38;;
65463;SDS011;52063;45.110;9.870;2023-05-29T06:45:14;18.50;;;11.80;;
65463;SDS011;52063;45.110;9.870;2023-05-29T06:47:41;19.75;;;14.15;;
65463;SDS011;52063;45.110;9.870;2023-05-29T06:50:07;14.82;;;13.00;;
65463;SDS011;52063;45.110;9.870;2023-05-29T06:52:33;17.92;;;13.48;;
65463;SDS011;52063;45.110;9.870;2023-05-29T06:55:17;17.45;;;13.25;;
65463;SDS011;52063;45.110;9.870;2023-05-29T06:57:43;16.27;;;13.77;;
65463;SDS011;52063;45.110;9.870;2023-05-29T07:00:10;16.38;;;13.25;;
65463;SDS011;52063;45.110;9.870;2023-05-29T07:02:41;17.17;;;12.18;;
65463;SDS011;52063;45.110;9.870;2023-05-29T07:05:07;18.95;;;12.68;;
65463;SDS011;52063;45.110;9.870;2023-05-29T07:07:34;16.67;;;13.63;;
65463;SDS011;52063;45.110;9.870;2023-05-29T07:10:00;15.70;;;12.63;;
65463;SDS011;52063;45.110;9.870;2023-05-29T07:12:26;16.35;;;12.15;;
65463;SDS011;52063;45.110;9.870;2023-05-29T07:14:52;11.90;;;10.47;;
65463;SDS011;52063;45.110;9.870;2023-05-29T07:17:18;16.15;;;12.23;;
65463;SDS011;52063;45.110;9.870;2023-05-29T07:19:43;12.43;;;9.70;;
65463;SDS011;52063;45.110;9.870;2023-05-29T07:22:09;13.77;;;11.18;;
65463;SDS011;52063;45.110;9.870;2023-05-29T07:24:36;15.30;;;11.15;;
65463;SDS011;52063;45.110;9.870;2023-05-29T07:27:04;16.30;;;10.45;;
65463;SDS011;52063;45.110;9.870;2023-05-29T07:29:31;13.90;;;9.67;;
65463;SDS011;52063;45.110;9.870;2023-05-29T07:31:56;13.23;;;10.45;;
65463;SDS011;52063;45.110;9.870;2023-05-29T07:34:23;14.65;;;9.40;;
65463;SDS011;52063;45.110;9.870;2023-05-29T07:37:02;12.03;;;9.43;;
65463;SDS011;52063;45.110;9.870;2023-05-29T07:39:31;11.43;;;9.40;;
65463;SDS011;52063;45.110;9.870;2023-05-29T07:42:00;15.25;;;9.77;;
65463;SDS011;52063;45.110;9.870;2023-05-29T07:44:26;10.30;;;8.83;;
65463;SDS011;52063;45.110;9.870;2023-05-29T07:46:52;12.55;;;9.40;;
65463;SDS011;52063;45.110;9.870;2023-05-29T07:49:35;9.98;;;8.18;;
65463;SDS011;52063;45.110;9.870;2023-05-29T07:52:01;9.93;;;8.10;;
65463;SDS011;52063;45.110;9.870;2023-05-29T07:54:27;11.40;;;7.90;;
65463;SDS011;52063;45.110;9.870;2023-05-29T07:56:54;12.85;;;8.43;;
65463;SDS011;52063;45.110;9.870;2023-05-29T07:59:20;10.00;;;7.90;;
65463;SDS011;52063;45.110;9.870;2023-05-29T08:01:46;13.27;;;8.70;;
65463;SDS011;52063;45.110;9.870;2023-05-29T08:04:31;9.57;;;7.80;;
65463;SDS011;52063;45.110;9.870;2023-05-29T08:06:57;15.40;;;9.23;;
65463;SDS011;52063;45.110;9.870;2023-05-29T08:09:24;10.57;;;8.65;;
65463;SDS011;52063;45.110;9.870;2023-05-29T08:11:49;8.90;;;7.50;;
65463;SDS011;52063;45.110;9.870;2023-05-29T08:14:15;10.45;;;8.48;;
65463;SDS011;52063;45.110;9.870;2023-05-29T08:16:41;12.98;;;8.95;;
65463;SDS011;52063;45.110;9.870;2023-05-29T08:19:07;13.20;;;8.40;;
65463;SDS011;52063;45.110;9.870;2023-05-29T08:21:33;14.15;;;7.70;;
65463;SDS011;52063;45.110;9.870;2023-05-29T08:23:58;11.00;;;8.60;;
65463;SDS011;52063;45.110;9.870;2023-05-29T08:26:24;9.02;;;7.22;;
65463;SDS011;52063;45.110;9.870;2023-05-29T08:28:51;10.48;;;7.60;;
65463;SDS011;52063;45.110;9.870;2023-05-29T08:31:16;8.77;;;7.80;;
65463;SDS011;52063;45.110;9.870;2023-05-29T08:33:41;7.93;;;6.70;;
65463;SDS011;52063;45.110;9.870;2023-05-29T08:36:07;8.60;;;7.50;;
65463;SDS011;52063;45.110;9.870;2023-05-29T08:38:35;7.93;;;7.07;;
65463;SDS011;52063;45.110;9.870;2023-05-29T08:41:01;11.33;;;7.10;;
65463;SDS011;52063;45.110;9.870;2023-05-29T08:43:31;10.40;;;7.53;;
65463;SDS011;52063;45.110;9.870;2023-05-29T08:46:01;7.97;;;6.57;;
65463;SDS011;52063;45.110;9.870;2023-05-29T08:48:27;8.65;;;7.18;;
65463;SDS011;52063;45.110;9.870;2023-05-29T08:50:54;8.50;;;6.97;;
65463;SDS011;52063;45.110;9.870;2023-05-29T08:53:21;9.07;;;7.00;;
65463;SDS011;52063;45.110;9.870;2023-05-29T08:55:47;8.27;;;6.45;;
65463;SDS011;52063;45.110;9.870;2023-05-29T08:58:16;9.15;;;6.40;;
65463;SDS011;52063;45.110;9.870;2023-05-29T09:00:43;8.63;;;6.47;;
65463;SDS011;52063;45.110;9.870;2023-05-29T09:03:10;7.38;;;5.85;;
65463;SDS011;52063;45.110;9.870;2023-05-29T09:05:36;9.23;;;7.13;;
65463;SDS011;52063;45.110;9.870;2023-05-29T09:08:05;8.52;;;5.72;;
65463;SDS011;52063;45.110;9.870;2023-05-29T09:10:32;9.95;;;6.00;;
65463;SDS011;52063;45.110;9.870;2023-05-29T09:12:58;9.93;;;6.67;;
65463;SDS011;52063;45.110;9.870;2023-05-29T09:15:24;8.77;;;6.27;;
65463;SDS011;52063;45.110;9.870;2023-05-29T09:17:50;6.82;;;6.05;;
65463;SDS011;52063;45.110;9.870;2023-05-29T09:20:17;7.72;;;6.93;;
65463;SDS011;52063;45.110;9.870;2023-05-29T09:22:52;10.43;;;6.83;;
65463;SDS011;52063;45.110;9.870;2023-05-29T09:25:28;7.60;;;6.78;;
65463;SDS011;52063;45.110;9.870;2023-05-29T09:33:00;10.68;;;7.38;;
65463;SDS011;52063;45.110;9.870;2023-05-29T09:35:27;12.80;;;8.63;;
65463;SDS011;52063;45.110;9.870;2023-05-29T09:37:57;11.35;;;7.30;;
65463;SDS011;52063;45.110;9.870;2023-05-29T09:40:22;9.70;;;6.87;;
65463;SDS011;52063;45.110;9.870;2023-05-29T09:42:48;8.30;;;5.95;;
65463;SDS011;52063;45.110;9.870;2023-05-29T09:45:16;11.07;;;7.50;;
65463;SDS011;52063;45.110;9.870;2023-05-29T09:47:42;13.23;;;6.93;;
65463;SDS011;52063;45.110;9.870;2023-05-29T09:50:17;9.70;;;6.70;;
65463;SDS011;52063;45.110;9.870;2023-05-29T09:52:44;8.67;;;6.57;;
65463;SDS011;52063;45.110;9.870;2023-05-29T09:55:09;8.05;;;6.35;;
65463;SDS011;52063;45.110;9.870;2023-05-29T09:57:35;10.70;;;7.00;;
65463;SDS011;52063;45.110;9.870;2023-05-29T10:00:02;9.60;;;7.00;;
65463;SDS011;52063;45.110;9.870;2023-05-29T10:02:37;9.52;;;7.07;;
65463;SDS011;52063;45.110;9.870;2023-05-29T10:05:05;8.88;;;7.25;;
65463;SDS011;52063;45.110;9.870;2023-05-29T10:07:32;10.07;;;8.00;;
65463;SDS011;52063;45.110;9.870;2023-05-29T10:10:01;10.77;;;7.90;;
65463;SDS011;52063;45.110;9.870;2023-05-29T10:12:34;11.73;;;7.00;;
65463;SDS011;52063;45.110;9.870;2023-05-29T10:15:12;11.25;;;6.28;;
65463;SDS011;52063;45.110;9.870;2023-05-29T10:17:39;12.98;;;7.43;;
65463;SDS011;52063;45.110;9.870;2023-05-29T10:20:29;8.52;;;6.47;;
65463;SDS011;52063;45.110;9.870;2023-05-29T10:22:55;8.80;;;6.78;;
65463;SDS011;52063;45.110;9.870;2023-05-29T10:25:23;11.10;;;5.90;;
65463;SDS011;52063;45.110;9.870;2023-05-29T10:27:49;8.43;;;6.00;;
65463;SDS011;52063;45.110;9.870;2023-05-29T10:33:04;9.50;;;6.80;;
65463;SDS011;52063;45.110;9.870;2023-05-29T10:35:40;7.40;;;6.60;;
65463;SDS011;52063;45.110;9.870;2023-05-29T10:38:12;11.00;;;6.97;;
65463;SDS011;52063;45.110;9.870;2023-05-29T10:40:39;10.20;;;7.25;;
65463;SDS011;52063;45.110;9.870;2023-05-29T10:43:04;11.70;;;7.20;;
65463;SDS011;52063;45.110;9.870;2023-05-29T10:53:03;10.38;;;7.20;;
65463;SDS011;52063;45.110;9.870;2023-05-29T10:55:35;8.95;;;6.40;;
65463;SDS011;52063;45.110;9.870;2023-05-29T10:58:04;9.83;;;7.67;;
65463;SDS011;52063;45.110;9.870;2023-05-29T11:00:30;10.50;;;6.70;;
65463;SDS011;52063;45.110;9.870;2023-05-29T11:02:56;8.63;;;6.63;;
65463;SDS011;52063;45.110;9.870;2023-05-29T11:05:22;10.30;;;6.47;;
65463;SDS011;52063;45.110;9.870;2023-05-29T11:07:57;9.88;;;6.88;;
65463;SDS011;52063;45.110;9.870;2023-05-29T11:13:09;10.40;;;6.47;;
65463;SDS011;52063;45.110;9.870;2023-05-29T11:15:34;10.20;;;7.37;;
65463;SDS011;52063;45.110;9.870;2023-05-29T11:18:07;8.55;;;6.75;;
65463;SDS011;52063;45.110;9.870;2023-05-29T11:20:37;10.65;;;8.30;;
65463;SDS011;52063;45.110;9.870;2023-05-29T11:23:08;10.43;;;7.95;;
65463;SDS011;52063;45.110;9.870;2023-05-29T11:25:41;12.23;;;7.20;;
65463;SDS011;52063;45.110;9.870;2023-05-29T11:28:09;11.60;;;8.02;;
65463;SDS011;52063;45.110;9.870;2023-05-29T11:30:42;12.38;;;8.30;;
65463;SDS011;52063;45.110;9.870;2023-05-29T11:33:08;10.30;;;7.95;;
65463;SDS011;52063;45.110;9.870;2023-05-29T11:35:34;12.40;;;7.83;;
65463;SDS011;52063;45.110;9.870;2023-05-29T11:38:00;10.00;;;8.00;;
65463;SDS011;52063;45.110;9.870;2023-05-29T11:40:26;9.20;;;7.80;;
65463;SDS011;52063;45.110;9.870;2023-05-29T11:42:52;8.37;;;7.53;;
65463;SDS011;52063;45.110;9.870;2023-05-29T11:45:18;10.20;;;8.32;;
65463;SDS011;52063;45.110;9.870;2023-05-29T11:47:55;9.27;;;6.72;;
65463;SDS011;52063;45.110;9.870;2023-05-29T11:50:23;12.88;;;9.38;;
65463;SDS011;52063;45.110;9.870;2023-05-29T11:52:52;12.57;;;8.37;;
65463;SDS011;52063;45.110;9.870;2023-05-29T11:55:18;11.60;;;8.52;;
65463;SDS011;52063;45.110;9.870;2023-05-29T11:57:45;8.15;;;7.00;;
65463;SDS011;52063;45.110;9.870;2023-05-29T12:00:12;10.60;;;7.33;;
65463;SDS011;52063;45.110;9.870;2023-05-29T12:02:39;10.73;;;7.65;;
65463;SDS011;52063;45.110;9.870;2023-05-29T12:05:05;11.95;;;7.10;;
65463;SDS011;52063;45.110;9.870;2023-05-29T12:07:37;10.70;;;7.90;;
65463;SDS011;52063;45.110;9.870;2023-05-29T12:10:12;8.33;;;6.60;;
65463;SDS011;52063;45.110;9.870;2023-05-29T12:12:38;9.55;;;7.38;;
65463;SDS011;52063;45.110;9.870;2023-05-29T12:15:05;11.63;;;7.15;;
65463;SDS011;52063;45.110;9.870;2023-05-29T12:17:32;11.75;;;8.13;;
65463;SDS011;52063;45.110;9.870;2023-05-29T12:19:58;12.63;;;7.68;;
65463;SDS011;52063;45.110;9.870;2023-05-29T12:22:33;14.07;;;7.57;;
65463;SDS011;52063;45.110;9.870;2023-05-29T12:27:41;9.18;;;7.40;;
65463;SDS011;52063;45.110;9.870;2023-05-29T12:30:11;7.40;;;6.23;;
65463;SDS011;52063;45.110;9.870;2023-05-29T12:32:42;8.18;;;5.68;;
65463;SDS011;52063;45.110;9.870;2023-05-29T12:35:19;10.13;;;6.90;;
65463;SDS011;52063;45.110;9.870;2023-05-29T12:40:21;13.15;;;7.28;;
65463;SDS011;52063;45.110;9.870;2023-05-29T12:42:47;10.23;;;6.90;;
65463;SDS011;52063;45.110;9.870;2023-05-29T12:45:13;10.15;;;7.13;;
65463;SDS011;52063;45.110;9.870;2023-05-29T12:47:52;11.93;;;7.22;;
65463;SDS011;52063;45.110;9.870;2023-05-29T12:52:45;9.60;;;6.53;;
65463;SDS011;52063;45.110;9.870;2023-05-29T12:55:11;8.47;;;6.07;;
65463;SDS011;52063;45.110;9.870;2023-05-29T12:57:37;7.67;;;6.57;;
65463;SDS011;52063;45.110;9.870;2023-05-29T13:00:02;9.00;;;6.40;;
65463;SDS011;52063;45.110;9.870;2023-05-29T13:02:28;11.13;;;6.90;;
65463;SDS011;52063;45.110;9.870;2023-05-29T13:04:54;10.17;;;6.50;;
65463;SDS011;52063;45.110;9.870;2023-05-29T13:07:20;10.45;;;6.90;;
65463;SDS011;52063;45.110;9.870;2023-05-29T13:09:45;8.87;;;6.43;;
65463;SDS011;52063;45.110;9.870;2023-05-29T13:12:12;8.23;;;6.50;;
65463;SDS011;52063;45.110;9.870;2023-05-29T13:14:37;8.70;;;6.37;;
65463;SDS011;52063;45.110;9.870;2023-05-29T13:17:03;8.07;;;6.23;;
65463;SDS011;52063;45.110;9.870;2023-05-29T13:19:29;8.15;;;6.32;;
65463;SDS011;52063;45.110;9.870;2023-05-29T13:21:54;9.30;;;6.40;;
65463;SDS011;52063;45.110;9.870;2023-05-29T13:24:20;9.85;;;6.97;;
65463;SDS011;52063;45.110;9.870;2023-05-29T13:26:45;13.53;;;7.33;;
65463;SDS011;52063;45.110;9.870;2023-05-29T13:29:11;9.45;;;6.72;;
65463;SDS011;52063;45.110;9.870;2023-05-29T13:31:36;9.90;;;6.77;;
65463;SDS011;52063;45.110;9.870;2023-05-29T13:34:02;7.27;;;6.30;;
65463;SDS011;52063;45.110;9.870;2023-05-29T13:36:27;10.87;;;7.00;;
65463;SDS011;52063;45.110;9.870;2023-05-29T13:38:53;11.83;;;6.53;;
65463;SDS011;52063;45.110;9.870;2023-05-29T13:41:18;7.73;;;6.50;;
65463;SDS011;52063;45.110;9.870;2023-05-29T13:43:43;7.90;;;6.83;;
65463;SDS011;52063;45.110;9.870;2023-05-29T13:46:09;10.63;;;7.25;;
65463;SDS011;52063;45.110;9.870;2023-05-29T13:48:35;9.17;;;6.80;;
65463;SDS011;52063;45.110;9.870;2023-05-29T13:51:00;10.43;;;6.90;;
65463;SDS011;52063;45.110;9.870;2023-05-29T13:53:26;11.50;;;6.67;;
65463;SDS011;52063;45.110;9.870;2023-05-29T13:55:51;10.30;;;6.77;;
65463;SDS011;52063;45.110;9.870;2023-05-29T13:58:17;10.57;;;6.50;;
65463;SDS011;52063;45.110;9.870;2023-05-29T14:00:42;7.70;;;6.30;;
65463;SDS011;52063;45.110;9.870;2023-05-29T14:03:08;9.20;;;6.30;;
65463;SDS011;52063;45.110;9.870;2023-05-29T14:05:33;11.00;;;6.50;;
65463;SDS011;52063;45.110;9.870;2023-05-29T14:07:58;9.13;;;6.03;;
65463;SDS011;52063;45.110;9.870;2023-05-29T14:10:24;9.30;;;6.10;;
65463;SDS011;52063;45.110;9.870;2023-05-29T14:12:49;11.40;;;6.83;;
65463;SDS011;52063;45.110;9.870;2023-05-29T14:15:15;7.30;;;5.65;;
65463;SDS011;52063;45.110;9.870;2023-05-29T14:17:40;8.70;;;5.90;;
65463;SDS011;52063;45.110;9.870;2023-05-29T14:20:06;6.50;;;5.90;;
65463;SDS011;52063;45.110;9.870;2023-05-29T14:22:33;9.23;;;6.53;;
65463;SDS011;52063;45.110;9.870;2023-05-29T14:25:00;9.95;;;6.20;;
65463;SDS011;52063;45.110;9.870;2023-05-29T14:27:26;8.50;;;5.97;;
65463;SDS011;52063;45.110;9.870;2023-05-29T14:29:51;6.67;;;5.33;;
65463;SDS011;52063;45.110;9.870;2023-05-29T14:32:17;7.67;;;5.50;;
65463;SDS011;52063;45.110;9.870;2023-05-29T14:34:43;7.57;;;6.10;;
65463;SDS011;52063;45.110;9.870;2023-05-29T14:37:08;9.57;;;6.03;;
65463;SDS011;52063;45.110;9.870;2023-05-29T14:39:33;10.90;;;6.03;;
65463;SDS011;52063;45.110;9.870;2023-05-29T14:41:59;10.00;;;6.00;;
65463;SDS011;52063;45.110;9.870;2023-05-29T14:44:25;9.05;;;6.50;;
65463;SDS011;52063;45.110;9.870;2023-05-29T14:46:51;10.23;;;6.20;;
65463;SDS011;52063;45.110;9.870;2023-05-29T14:49:16;8.77;;;6.32;;
65463;SDS011;52063;45.110;9.870;2023-05-29T14:51:41;9.07;;;5.93;;
65463;SDS011;52063;45.110;9.870;2023-05-29T14:54:07;10.77;;;5.90;;
65463;SDS011;52063;45.110;9.870;2023-05-29T14:56:34;8.57;;;5.70;;
65463;SDS011;52063;45.110;9.870;2023-05-29T14:58:59;7.30;;;5.43;;
65463;SDS011;52063;45.110;9.870;2023-05-29T15:01:25;7.77;;;6.37;;
65463;SDS011;52063;45.110;9.870;2023-05-29T15:03:50;7.73;;;5.93;;
65463;SDS011;52063;45.110;9.870;2023-05-29T15:06:16;9.23;;;5.32;;
65463;SDS011;52063;45.110;9.870;2023-05-29T15:08:41;10.93;;;6.10;;
65463;SDS011;52063;45.110;9.870;2023-05-29T15:11:08;9.00;;;5.75;;
65463;SDS011;52063;45.110;9.870;2023-05-29T15:13:34;8.68;;;5.45;;